Time;durP1;ratioP1;P1;durP2;ratioP2;P2;SDS_P1;SDS_P2;PMS_P1;PMS_P2;Temp;Humidity;BMP_temperature;BMP_pressure;BME280_temperature;BME280_humidity;BME280_pressure;Samples;Min_cycle;Max_cycle;Signal;HPM_P1;HPM_P2
2022/04/26 03:37:29;;;;;;;15.50;10.30;;;;;;;7.04;91.73;100543.21;107144;1254;72932;-75
2022/04/26 03:39:58;;;;;;;14.90;9.90;;;;;;;7.14;91.70;100544.88;107062;1253;60480;-75
2022/04/26 03:42:27;;;;;;;16.30;9.80;;;;;;;7.25;91.58;100548.04;107096;1253;60577;-76
2022/04/26 03:44:55;;;;;;;18.30;11.80;;;;;;;7.33;91.20;100549.80;107068;1254;74143;-76
2022/04/26 03:47:24;;;;;;;18.20;11.10;;;;;;;7.41;91.07;100556.04;107095;1254;71809;-77
2022/04/26 03:49:53;;;;;;;17.20;11.20;;;;;;;7.49;91.01;100559.92;107103;1254;68420;-76
2022/04/26 03:52:22;;;;;;;18.50;12.50;;;;;;;7.58;91.10;100560.40;107018;1254;71396;-74
2022/04/26 03:54:50;;;;;;;20.70;11.90;;;;;;;7.64;90.58;100564.67;106873;1254;63518;-75
2022/04/26 03:57:19;;;;;;;19.50;11.20;;;;;;;7.72;90.43;100565.04;106998;1254;60640;-72
2022/04/26 03:59:48;;;;;;;20.40;11.60;;;;;;;7.80;90.22;100566.80;106900;1254;72614;-72
2022/04/26 04:02:17;;;;;;;18.40;11.20;;;;;;;7.85;89.77;100564.93;106924;1254;70833;-75
2022/04/26 04:04:46;;;;;;;19.30;11.10;;;;;;;7.89;89.86;100571.40;106936;1254;69307;-76
2022/04/26 04:07:15;;;;;;;19.00;11.30;;;;;;;7.93;89.77;100574.95;107023;1254;73143;-75
2022/04/26 04:09:44;;;;;;;18.30;11.10;;;;;;;7.96;89.72;100577.05;107508;1254;61956;-76
2022/04/26 04:12:13;;;;;;;18.30;10.70;;;;;;;7.97;89.98;100580.61;107258;1254;60441;-75
2022/04/26 04:14:41;;;;;;;19.30;10.70;;;;;;;8.01;90.10;100591.15;107040;1254;74454;-73
2022/04/26 04:17:10;;;;;;;17.20;9.60;;;;;;;8.04;89.97;100594.40;107022;1255;71165;-72
2022/04/26 04:19:39;;;;;;;37.90;27.30;;;;;;;8.07;89.73;100597.14;106948;1254;69668;-73
2022/04/26 04:22:08;;;;;;;26.00;18.10;;;;;;;8.12;90.10;100598.38;106860;1254;72327;-72
2022/04/26 04:24:37;;;;;;;19.40;12.70;;;;;;;8.19;90.35;100596.73;106885;1254;60554;-72
2022/04/26 04:27:06;;;;;;;22.70;12.80;;;;;;;8.25;90.13;100598.45;106965;1254;60605;-73
2022/04/26 04:29:38;;;;;;;20.30;12.40;;;;;;;8.34;90.04;100605.29;107051;1254;74176;-73
2022/04/26 04:32:07;;;;;;;22.80;13.40;;;;;;;8.41;90.04;100609.54;107440;1253;70650;-75
2022/04/26 04:34:36;;;;;;;20.30;13.00;;;;;;;8.51;90.05;100613.05;107450;1254;69232;-75
2022/04/26 04:37:05;;;;;;;22.90;12.90;;;;;;;8.60;90.02;100620.45;107065;1256;71313;-75
2022/04/26 04:39:34;;;;;;;27.20;14.00;;;;;;;8.69;89.86;100625.29;107291;1254;61066;-76
2022/04/26 04:42:05;;;;;;;15.80;10.40;;;;;;;8.77;89.22;100619.55;107186;1254;60358;-76
2022/04/26 04:44:33;;;;;;;16.70;9.30;;;;;;;8.85;88.76;100622.65;107295;1254;71354;-73
2022/04/26 04:47:02;;;;;;;14.60;9.80;;;;;;;8.91;88.95;100624.70;106874;1254;69686;-74
2022/04/26 04:49:31;;;;;;;16.70;9.90;;;;;;;8.98;88.72;100630.09;106931;1254;68826;-73
2022/04/26 04:52:00;;;;;;;13.50;9.10;;;;;;;9.07;88.68;100634.54;107022;1254;72333;-73
2022/04/26 04:54:29;;;;;;;16.90;9.00;;;;;;;9.16;88.20;100633.44;106981;1254;61328;-74
2022/04/26 04:56:58;;;;;;;15.20;8.20;;;;;;;9.24;87.93;100628.21;106944;1254;59614;-74
2022/04/26 04:59:28;;;;;;;15.80;10.00;;;;;;;9.30;87.62;100630.21;106929;1253;73639;-75
2022/04/26 05:01:58;;;;;;;19.00;14.90;;;;;;;9.35;87.43;100634.38;107222;1254;72359;-75
2022/04/26 05:04:27;;;;;;;18.40;16.10;;;;;;;9.43;87.53;100630.58;107331;1253;68739;-76
2022/04/26 05:06:56;;;;;;;23.30;16.20;;;;;;;9.51;87.32;100631.36;107330;1252;73324;-77
2022/04/26 05:09:24;;;;;;;25.60;16.50;;;;;;;9.60;87.26;100625.52;107393;1253;62703;-77
2022/04/26 05:11:54;;;;;;;30.80;18.10;;;;;;;9.70;87.40;100629.52;107067;1251;60390;-75
2022/04/26 05:14:22;;;;;;;23.80;15.70;;;;;;;9.82;86.74;100627.29;107207;1253;73306;-78
2022/04/26 05:16:51;;;;;;;24.60;15.00;;;;;;;9.93;86.83;100627.54;107146;1253;69581;-75
2022/04/26 05:19:20;;;;;;;15.20;10.40;;;;;;;10.07;86.07;100633.36;106985;1253;67933;-75
2022/04/26 05:21:49;;;;;;;11.20;7.60;;;;;;;10.21;85.16;100637.08;107046;1253;71537;-75
2022/04/26 05:27:05;;;;;;;7.60;5.10;;;;;;;10.38;83.25;100636.36;107439;1252;59291;-76
2022/04/26 05:29:35;;;;;;;8.10;5.00;;;;;;;10.48;81.69;100636.32;108577;1253;71418;-76
2022/04/26 05:32:06;;;;;;;8.80;4.80;;;;;;;10.58;81.37;100636.45;108495;1254;69657;-76
2022/04/26 05:34:34;;;;;;;7.60;4.30;;;;;;;10.68;81.06;100642.39;108622;1253;70144;-77
2022/04/26 05:37:03;;;;;;;8.20;4.80;;;;;;;10.78;80.35;100640.23;108441;1251;72681;-76
2022/04/26 05:39:32;;;;;;;7.00;5.10;;;;;;;10.85;80.92;100643.02;108730;1250;60762;-78
2022/04/26 05:42:04;;;;;;;8.70;5.40;;;;;;;10.97;81.37;100651.38;108917;1250;61630;-79
2022/04/26 05:44:38;;;;;;;14.00;6.10;;;;;;;11.13;81.47;100650.30;108316;1253;71371;-76
2022/04/26 05:47:10;;;;;;;9.50;5.90;;;;;;;11.29;81.40;100650.83;107406;1251;72242;-77
2022/04/26 05:49:39;;;;;;;10.40;6.20;;;;;;;11.43;81.07;100647.01;107667;1251;70935;-78
2022/04/26 05:52:08;;;;;;;11.80;5.70;;;;;;;11.59;80.77;100652.00;107165;1251;74413;-77
2022/04/26 05:54:37;;;;;;;18.80;6.70;;;;;;;11.73;80.19;100652.47;107372;1251;61390;-76
2022/04/26 05:57:08;;;;;;;12.30;5.30;;;;;;;11.88;78.92;100652.75;107290;1254;60174;-75
2022/04/26 05:59:37;;;;;;;7.90;5.00;;;;;;;12.04;78.08;100652.38;107340;1250;73677;-76
2022/04/26 06:02:06;;;;;;;6.80;4.30;;;;;;;12.17;76.51;100650.80;107649;1251;71012;-77
2022/04/26 06:04:38;;;;;;;6.50;3.90;;;;;;;12.27;76.77;100651.91;107578;1253;68771;-76
2022/04/26 06:07:10;;;;;;;6.40;4.00;;;;;;;12.39;75.78;100653.92;107404;1253;72052;-76
2022/04/26 06:09:40;;;;;;;8.40;3.70;;;;;;;12.54;74.38;100654.34;107432;1251;62978;-75
2022/04/26 06:12:09;;;;;;;8.50;4.40;;;;;;;12.62;73.90;100658.56;107286;1253;60312;-76
2022/04/26 06:14:40;;;;;;;7.80;4.20;;;;;;;12.69;74.11;100661.09;107392;1252;70686;-74
2022/04/26 06:17:09;;;;;;;9.70;4.40;;;;;;;12.81;74.25;100665.70;107351;1251;68585;-75
2022/04/26 06:19:38;;;;;;;6.50;4.30;;;;;;;12.96;73.80;100664.11;107476;1250;69440;-76
2022/04/26 06:22:07;;;;;;;7.00;3.80;;;;;;;13.10;73.34;100662.89;107324;1253;73518;-75
2022/04/26 06:25:24;;;;;;;7.30;4.30;;;;;;;13.12;72.69;100641.48;109249;1243;62991;31
2022/04/26 06:29:20;;;;;;;5.80;3.70;;;;;;;13.47;72.03;100667.73;107327;1254;60379;-78
2022/04/26 06:31:56;;;;;;;6.10;3.20;;;;;;;13.71;70.71;100667.89;108177;1254;73640;-77
2022/04/26 06:34:29;;;;;;;8.60;3.70;;;;;;;13.86;70.14;100667.52;107820;1262;72040;-77
2022/04/26 06:36:58;;;;;;;6.20;3.90;;;;;;;14.03;69.56;100665.00;107368;1263;71491;-78
2022/04/26 06:39:27;;;;;;;6.60;4.00;;;;;;;14.19;67.49;100670.01;107038;1264;73701;-78
2022/04/26 06:41:57;;;;;;;10.10;4.50;;;;;;;14.27;67.08;100668.45;107726;1262;62953;-79
2022/04/26 06:45:04;;;;;;;6.60;3.90;;;;;;;14.33;67.88;100671.96;106865;1270;60839;-77
2022/04/26 06:47:36;;;;;;;6.60;4.00;;;;;;;14.43;67.64;100673.16;107143;1270;70536;-80
2022/04/26 06:50:08;;;;;;;7.40;3.50;;;;;;;14.60;66.87;100674.46;106873;1270;72555;-79
2022/04/26 06:52:37;;;;;;;4.10;2.90;;;;;;;14.69;65.97;100673.89;107351;1270;70291;-79
2022/04/26 06:55:14;;;;;;;5.60;3.10;;;;;;;14.74;66.00;100670.02;106790;1270;73203;-82
2022/04/26 06:57:46;;;;;;;4.60;3.40;;;;;;;14.90;64.71;100672.11;106651;1272;59483;-77
2022/04/26 07:00:16;;;;;;;6.10;3.10;;;;;;;14.94;64.77;100674.17;105533;1270;59216;-76
2022/04/26 07:02:45;;;;;;;9.10;3.60;;;;;;;15.06;64.01;100676.61;105432;1270;72525;-75
2022/04/26 07:05:16;;;;;;;5.10;3.40;;;;;;;15.08;64.46;100680.95;105491;1270;72869;-77
2022/04/26 07:07:50;;;;;;;5.50;2.70;;;;;;;15.23;62.21;100681.34;105825;1270;70499;-76
2022/04/26 07:10:21;;;;;;;7.30;3.10;;;;;;;15.30;61.34;100673.09;105814;1273;72889;-77
2022/04/26 07:12:51;;;;;;;3.90;2.60;;;;;;;15.44;62.44;100675.52;105605;1270;61212;-76
2022/04/26 07:15:20;;;;;;;3.00;2.00;;;;;;;15.61;61.72;100678.74;105762;1267;60052;-75
2022/04/26 07:17:49;;;;;;;4.10;2.20;;;;;;;15.74;58.56;100681.70;105832;1267;71833;-78
2022/04/26 07:20:22;;;;;;;3.10;2.30;;;;;;;15.81;58.27;100684.55;105712;1270;72419;-79
2022/04/26 07:22:52;;;;;;;5.20;2.40;;;;;;;15.89;58.80;100681.33;106913;1263;71121;-78
2022/04/26 07:25:30;;;;;;;3.50;2.20;;;;;;;16.01;57.70;100687.87;107702;1263;74914;-78
2022/04/26 07:27:59;;;;;;;3.00;2.10;;;;;;;16.10;57.46;100689.52;107318;1263;59546;-76
2022/04/26 07:30:34;;;;;;;2.80;1.70;;;;;;;16.25;53.86;100690.23;106245;1263;60738;-75
2022/04/26 07:35:54;;;;;;;4.30;1.80;;;;;;;16.39;53.46;100692.48;106424;1263;69806;-76
2022/04/26 07:38:23;;;;;;;3.80;2.00;;;;;;;16.47;53.62;100692.23;106349;1263;67989;-79
2022/04/26 07:40:52;;;;;;;3.40;2.10;;;;;;;16.53;53.95;100691.50;106928;1262;71255;-76
2022/04/26 07:43:21;;;;;;;3.10;1.80;;;;;;;16.62;52.99;100697.52;107087;1263;61364;-77
2022/04/26 07:45:50;;;;;;;2.90;1.80;;;;;;;16.77;50.46;100703.39;106677;1263;60147;-77
2022/04/26 07:57:25;;;;;;;4.20;1.80;;;;;;;17.10;48.16;100705.98;108224;1252;70874;-77
2022/04/26 07:59:54;;;;;;;2.40;1.60;;;;;;;17.24;46.42;100700.80;106435;1260;62503;-76
2022/04/26 08:02:24;;;;;;;3.60;1.60;;;;;;;17.30;47.22;100706.02;106368;1260;60601;-75
2022/04/26 08:04:59;;;;;;;4.00;1.90;;;;;;;17.33;46.68;100701.72;106313;1262;60805;-73
2022/04/26 08:07:29;;;;;;;3.30;1.70;;;;;;;17.35;47.30;100712.05;106588;1262;72214;-75
2022/04/26 08:09:57;;;;;;;2.80;1.80;;;;;;;17.39;48.06;100710.58;106385;1260;72507;-75
2022/04/26 08:12:26;;;;;;;4.00;2.10;;;;;;;17.50;47.16;100708.06;106225;1263;60584;-76
2022/04/26 08:14:55;;;;;;;3.80;1.90;;;;;;;17.60;48.26;100700.05;106306;1261;74443;-78
2022/04/26 08:17:23;;;;;;;2.20;1.60;;;;;;;17.72;47.66;100707.39;106385;1262;62156;-76
2022/04/26 08:19:52;;;;;;;3.40;1.70;;;;;;;17.75;47.52;100708.15;106338;1262;59319;-77
2022/04/26 08:22:21;;;;;;;3.10;1.60;;;;;;;17.71;47.39;100705.34;106271;1263;72837;-77
2022/04/26 08:27:38;;;;;;;2.50;1.70;;;;;;;17.77;46.36;100706.39;106557;1261;59656;-74
2022/04/26 08:30:08;;;;;;;2.60;1.80;;;;;;;17.77;46.78;100709.02;106366;1260;63462;-75
2022/04/26 08:32:46;;;;;;;6.00;2.00;;;;;;;17.84;44.96;100710.73;106552;1260;60674;-78
2022/04/26 08:35:19;;;;;;;4.20;1.80;;;;;;;17.85;44.98;100710.11;106386;1262;60736;-77
2022/04/26 08:37:50;;;;;;;3.40;1.70;;;;;;;17.85;45.03;100705.20;106791;1260;71410;-74
2022/04/26 08:40:19;;;;;;;2.30;1.70;;;;;;;18.01;45.49;100699.98;106552;1260;62503;-76
2022/04/26 08:42:51;;;;;;;3.30;1.90;;;;;;;18.09;44.82;100706.05;106485;1260;59212;-73
2022/04/26 08:45:21;;;;;;;3.60;1.90;;;;;;;18.12;45.30;100709.77;106333;1262;63348;-78
2022/04/26 08:53:29;;;;;;;2.30;1.60;;;;;;;18.30;44.06;100706.80;106446;1262;63556;-76
2022/04/26 08:56:06;;;;;;;2.70;1.90;;;;;;;18.33;44.01;100706.55;106711;1261;60813;-76
2022/04/26 08:58:36;;;;;;;2.40;2.00;;;;;;;18.40;44.36;100705.63;106493;1260;61502;-73
2022/04/26 09:01:24;;;;;;;2.30;1.90;;;;;;;18.44;43.61;100706.75;106330;1262;63379;-77
2022/04/26 09:03:56;;;;;;;2.70;1.80;;;;;;;18.43;44.58;100709.16;106542;1261;61742;-73
2022/04/26 09:06:45;;;;;;;5.00;1.90;;;;;;;18.42;44.55;100702.02;106540;1262;57382;-73
2022/04/26 09:09:24;;;;;;;2.80;2.00;;;;;;;18.60;43.98;100704.08;106431;1263;62385;-72
2022/04/26 09:11:59;;;;;;;3.10;1.60;;;;;;;18.63;43.71;100702.13;106328;1263;60940;-71
2022/04/26 09:14:35;;;;;;;4.40;1.60;;;;;;;18.70;43.26;100704.91;106399;1261;60082;-77
2022/04/26 09:17:13;;;;;;;1.80;1.30;;;;;;;18.81;41.56;100707.08;106425;1262;63391;-74
2022/04/26 09:19:48;;;;;;;4.00;1.90;;;;;;;18.77;41.93;100709.75;106495;1259;60451;-74
2022/04/26 09:22:27;;;;;;;6.00;2.20;;;;;;;18.76;42.06;100714.52;106733;1260;59035;-74
2022/04/26 09:25:07;;;;;;;2.60;1.70;;;;;;;18.81;42.64;100715.55;106890;1260;63399;-78
2022/04/26 09:27:41;;;;;;;2.30;1.70;;;;;;;18.88;42.76;100715.90;106553;1260;69669;-74
2022/04/26 09:30:13;;;;;;;2.90;1.60;;;;;;;18.99;42.51;100714.35;106501;1260;60142;-75
2022/04/26 09:32:49;;;;;;;5.00;2.00;;;;;;;19.22;42.01;100711.67;106554;1261;63442;-73
2022/04/26 09:35:29;;;;;;;2.80;1.60;;;;;;;19.47;40.02;100717.79;106445;1260;60919;-73
2022/04/26 09:37:59;;;;;;;4.10;2.00;;;;;;;19.57;39.99;100713.67;106112;1262;58787;-73
2022/04/26 09:40:33;;;;;;;2.50;1.80;;;;;;;19.55;40.91;100712.48;106636;1260;72905;-72
2022/04/26 09:43:02;;;;;;;3.10;2.00;;;;;;;19.55;41.34;100715.96;106502;1260;62519;-72
2022/04/26 09:45:31;;;;;;;2.80;1.90;;;;;;;19.61;41.15;100709.05;106363;1262;60129;-73
2022/04/26 09:48:00;;;;;;;3.30;2.10;;;;;;;19.82;40.34;100707.56;106337;1262;74061;-72
2022/04/26 09:50:29;;;;;;;4.10;2.20;;;;;;;19.84;39.53;100704.02;106220;1260;60953;-72
2022/04/26 09:52:58;;;;;;;3.80;2.00;;;;;;;19.67;40.45;100701.98;106613;1260;57467;-75
2022/04/26 09:55:27;;;;;;;3.40;2.00;;;;;;;19.72;40.74;100698.41;106554;1260;62336;-75
2022/04/26 09:57:57;;;;;;;2.90;1.70;;;;;;;19.85;40.09;100703.11;106402;1262;61173;-75
2022/04/26 10:00:27;;;;;;;4.00;1.80;;;;;;;19.98;39.32;100705.95;106706;1261;59324;-74
2022/04/26 10:03:01;;;;;;;3.20;1.70;;;;;;;20.05;38.71;100704.98;106304;1262;73198;-74
2022/04/26 10:05:31;;;;;;;3.80;1.40;;;;;;;20.21;38.10;100704.75;106395;1262;61249;-75
2022/04/26 10:08:00;;;;;;;5.10;1.60;;;;;;;20.16;38.03;100705.49;106098;1262;61134;-74
2022/04/26 10:10:29;;;;;;;2.80;1.80;;;;;;;20.19;37.87;100704.14;106128;1263;63415;-74
2022/04/26 10:15:47;;;;;;;9.90;2.20;;;;;;;20.40;38.50;100703.95;106287;1262;69914;-74
2022/04/26 10:18:32;;;;;;;2.20;1.60;;;;;;;20.64;38.42;100702.73;106172;1262;74501;-74
2022/04/26 10:21:03;;;;;;;3.60;1.70;;;;;;;20.95;35.77;100703.90;106100;1262;59032;-73
2022/04/26 10:24:04;;;;;;;2.30;1.50;;;;;;;21.02;36.10;100702.91;106016;1262;62314;-73
2022/04/26 10:26:35;;;;;;;4.20;2.00;;;;;;;21.05;36.66;100699.56;106234;1262;74477;-74
2022/04/26 10:29:10;;;;;;;2.70;1.80;;;;;;;21.48;35.87;100703.33;106285;1261;72669;-74
2022/04/26 10:32:00;;;;;;;4.00;2.00;;;;;;;21.33;36.37;100702.77;106256;1262;71119;-74
2022/04/26 10:34:34;;;;;;;3.60;1.80;;;;;;;21.11;36.52;100696.27;106290;1262;73830;-76
2022/04/26 10:37:06;;;;;;;4.30;1.70;;;;;;;21.56;35.90;100701.39;106313;1263;58836;-73
2022/04/26 10:39:45;;;;;;;2.40;1.40;;;;;;;22.11;34.91;100694.72;106438;1262;61334;-75
2022/04/26 10:42:18;;;;;;;1.30;1.10;;;;;;;22.78;32.38;100692.08;106258;1262;74413;-74
2022/04/26 10:44:49;;;;;;;1.80;1.20;;;;;;;23.00;33.38;100694.80;106474;1262;71989;-74
2022/04/26 10:47:23;;;;;;;2.70;1.20;;;;;;;23.45;31.74;100688.59;106279;1262;72719;-76
2022/04/26 10:49:54;;;;;;;3.10;1.40;;;;;;;23.56;32.33;100688.85;106285;1262;74329;-75
2022/04/26 10:52:23;;;;;;;3.00;1.60;;;;;;;24.07;31.39;100688.16;106553;1262;62395;-76
2022/04/26 10:55:04;;;;;;;1.90;1.30;;;;;;;23.96;32.14;100689.86;106403;1262;62841;-74
2022/04/26 10:57:36;;;;;;;3.00;1.40;;;;;;;23.95;32.49;100697.20;106330;1262;63477;-75
2022/04/26 11:00:28;;;;;;;2.20;1.50;;;;;;;23.29;34.16;100693.24;106477;1261;72564;-74
2022/04/26 11:03:04;;;;;;;1.90;1.30;;;;;;;24.18;33.90;100691.86;106383;1262;71277;-73
2022/04/26 11:05:34;;;;;;;3.10;1.40;;;;;;;24.91;32.62;100694.30;106327;1262;73569;-73
2022/04/26 11:08:04;;;;;;;2.30;1.40;;;;;;;25.14;31.02;100697.48;106460;1261;61719;-76
2022/04/26 11:13:32;;;;;;;1.90;1.20;;;;;;;24.47;28.42;100674.73;106378;1262;72785;-73
2022/04/26 11:16:12;;;;;;;1.70;1.20;;;;;;;24.14;28.67;100695.46;106569;1262;62360;-76
2022/04/26 11:18:43;;;;;;;2.00;1.40;;;;;;;24.02;29.77;100704.61;106562;1262;70661;-71
2022/04/26 11:21:13;;;;;;;6.50;1.70;;;;;;;23.76;31.39;100696.23;106432;1261;74508;-71
2022/04/26 11:29:26;;;;;;;2.00;1.40;;;;;;;22.94;34.31;100698.46;106214;1260;74032;-71
2022/04/26 11:31:56;;;;;;;2.90;1.50;;;;;;;22.23;34.14;100704.17;106322;1260;62074;-71
2022/04/26 11:34:46;;;;;;;2.80;1.80;;;;;;;22.37;34.23;100705.50;106462;1262;59325;-75
2022/04/26 11:37:15;;;;;;;2.30;1.50;;;;;;;22.91;34.43;100700.02;105916;1262;73894;-74
2022/04/26 11:39:45;;;;;;;3.70;1.90;;;;;;;23.04;33.76;100698.63;106435;1262;61174;-72
2022/04/26 11:42:13;;;;;;;3.00;1.80;;;;;;;23.77;32.94;100695.31;106340;1262;57507;-72
2022/04/26 11:45:01;;;;;;;1.80;1.40;;;;;;;24.15;31.72;100692.48;106273;1262;73838;-73
2022/04/26 11:47:50;;;;;;;2.80;1.60;;;;;;;24.62;31.55;100692.55;106337;1262;62435;-72
2022/04/26 11:50:31;;;;;;;2.70;1.40;;;;;;;25.29;30.96;100690.09;106244;1262;59322;-74
2022/04/26 11:53:02;;;;;;;3.90;1.90;;;;;;;24.86;29.89;100686.68;106246;1262;75546;-73
2022/04/26 11:55:34;;;;;;;2.00;1.20;;;;;;;24.75;30.03;100689.70;106273;1262;61239;-73
2022/04/26 11:58:34;;;;;;;3.50;1.50;;;;;;;24.72;30.01;100685.52;106377;1260;61324;-72
2022/04/26 12:01:15;;;;;;;2.10;1.40;;;;;;;24.37;29.95;100689.54;106217;1260;72312;-73
2022/04/26 12:03:49;;;;;;;4.00;1.50;;;;;;;24.15;30.66;100683.59;106556;1260;70921;-73
2022/04/26 12:06:29;;;;;;;3.50;1.20;;;;;;;23.97;30.83;100683.97;106206;1262;60001;-73
2022/04/26 12:09:04;;;;;;;2.50;1.30;;;;;;;24.48;30.93;100682.77;106539;1260;63747;-74
2022/04/26 12:11:37;;;;;;;2.10;1.50;;;;;;;24.47;30.63;100681.11;106329;1260;61983;-73
2022/04/26 12:14:16;;;;;;;4.90;1.80;;;;;;;24.10;30.91;100678.99;106535;1261;58945;-75
2022/04/26 12:16:48;;;;;;;1.90;1.30;;;;;;;24.30;31.14;100681.07;106632;1260;62653;-75
2022/04/26 12:19:17;;;;;;;1.90;1.40;;;;;;;25.30;30.65;100679.46;106426;1261;72033;-74
2022/04/26 12:21:59;;;;;;;2.20;1.40;;;;;;;26.28;28.70;100676.14;106523;1260;59688;-73
2022/04/26 12:24:33;;;;;;;1.20;1.00;;;;;;;26.82;26.47;100677.10;106665;1260;73969;-74
2022/04/26 12:27:11;;;;;;;1.50;0.90;;;;;;;27.13;26.09;100672.89;106696;1261;58834;-74
2022/04/26 12:29:45;;;;;;;1.80;1.10;;;;;;;27.60;25.93;100670.82;106768;1260;59591;-75
2022/04/26 12:32:18;;;;;;;2.80;1.20;;;;;;;27.68;25.09;100668.25;106427;1262;62746;-72
2022/04/26 12:34:50;;;;;;;2.10;0.90;;;;;;;27.03;25.17;100666.73;106567;1261;61527;-76
2022/04/26 12:37:26;;;;;;;2.20;1.20;;;;;;;26.19;25.37;100672.78;106645;1261;60141;-74
2022/04/26 12:40:06;;;;;;;3.50;2.20;;;;;;;25.45;26.25;100673.30;106632;1260;62580;-74
2022/04/26 12:42:40;;;;;;;4.50;1.50;;;;;;;24.69;28.38;100671.00;106537;1261;59055;-73
2022/04/26 12:45:22;;;;;;;6.10;1.70;;;;;;;24.08;29.62;100672.36;106265;1261;60475;-73
2022/04/26 12:51:21;;;;;;;4.70;1.30;;;;;;;23.75;29.35;100666.69;106423;1260;71570;-74
2022/04/26 12:54:09;;;;;;;3.70;1.30;;;;;;;24.36;29.29;100668.68;106264;1262;60074;-78
2022/04/26 12:56:38;;;;;;;2.80;1.50;;;;;;;24.95;26.50;100668.02;106213;1260;74843;-75
2022/04/26 12:59:17;;;;;;;1.80;1.20;;;;;;;25.16;25.94;100664.21;106369;1262;61006;-78
2022/04/26 13:01:46;;;;;;;2.80;1.20;;;;;;;25.53;25.35;100668.91;106562;1261;58978;-75
2022/04/26 13:04:15;;;;;;;1.90;1.20;;;;;;;25.26;25.48;100668.10;106449;1260;63044;-75
2022/04/26 13:06:44;;;;;;;3.40;1.20;;;;;;;24.85;25.87;100664.73;106399;1262;60914;-75
2022/04/26 13:09:33;;;;;;;2.20;1.20;;;;;;;24.86;26.13;100659.88;106359;1262;59370;-77
2022/04/26 13:12:03;;;;;;;2.30;1.60;;;;;;;25.25;25.23;100653.41;106378;1260;64829;-76
2022/04/26 13:14:32;;;;;;;3.90;1.30;;;;;;;25.28;26.03;100656.21;106231;1260;61313;-75
2022/04/26 13:17:20;;;;;;;4.70;1.70;;;;;;;25.68;25.67;100654.00;106515;1260;62819;-78
2022/04/26 13:19:49;;;;;;;2.20;1.40;;;;;;;26.21;25.39;100653.54;106490;1260;62721;-77
2022/04/26 13:22:18;;;;;;;1.20;1.00;;;;;;;26.87;24.53;100654.05;106467;1260;71549;-72
2022/04/26 13:24:47;;;;;;;2.10;1.30;;;;;;;27.37;23.37;100649.78;106582;1260;70588;-72
2022/04/26 13:27:16;;;;;;;3.40;1.20;;;;;;;27.86;23.33;100653.46;106244;1264;62484;-75
2022/04/26 13:29:45;;;;;;;2.30;1.40;;;;;;;28.03;22.27;100655.23;106805;1262;58903;-75
2022/04/26 13:32:15;;;;;;;1.30;0.90;;;;;;;28.20;22.94;100658.27;106681;1262;59147;-75
2022/04/26 13:34:45;;;;;;;1.50;1.10;;;;;;;28.48;22.69;100652.30;106782;1260;63107;-77
2022/04/26 13:37:17;;;;;;;2.20;1.00;;;;;;;28.62;22.11;100657.25;106705;1260;61592;-77
2022/04/26 13:39:46;;;;;;;1.40;1.10;;;;;;;29.11;20.92;100656.36;106533;1262;70763;-75
2022/04/26 13:42:15;;;;;;;1.80;1.20;;;;;;;29.54;21.86;100656.30;106573;1260;73586;-73
2022/04/26 13:44:45;;;;;;;2.00;1.10;;;;;;;29.63;21.54;100658.66;106592;1261;59122;-74
2022/04/26 13:47:14;;;;;;;4.80;1.60;;;;;;;29.71;21.04;100651.76;106474;1262;61427;-75
2022/04/26 13:49:42;;;;;;;2.20;1.40;;;;;;;29.63;21.34;100658.52;106365;1262;74478;-74
2022/04/26 13:52:13;;;;;;;2.50;1.40;;;;;;;29.29;20.92;100656.88;106473;1260;62301;-73
2022/04/26 13:54:42;;;;;;;1.80;1.10;;;;;;;29.31;20.87;100655.84;106229;1262;59997;-75
2022/04/26 13:57:12;;;;;;;1.70;1.10;;;;;;;29.95;20.77;100658.23;106345;1262;62530;-74
2022/04/26 13:59:42;;;;;;;1.70;1.30;;;;;;;29.50;20.86;100658.75;106493;1262;61445;-74
2022/04/26 14:02:13;;;;;;;2.30;1.30;;;;;;;28.13;21.97;100659.63;106390;1260;60894;-74
2022/04/26 14:04:42;;;;;;;2.70;1.50;;;;;;;27.03;23.20;100665.66;106472;1260;73306;-73
2022/04/26 14:07:11;;;;;;;6.60;2.00;;;;;;;25.68;25.29;100673.54;106481;1261;72726;-74
2022/04/26 14:09:41;;;;;;;2.00;1.50;;;;;;;25.30;26.76;100668.99;106250;1260;61364;-74
2022/04/26 14:12:12;;;;;;;2.70;1.60;;;;;;;24.69;28.55;100669.02;106717;1260;74335;-76
2022/04/26 14:23:03;;;;;;;2.40;1.40;;;;;;;25.00;27.75;100668.69;106390;1262;61201;-74
2022/04/26 14:25:32;;;;;;;2.40;1.70;;;;;;;24.64;28.16;100670.91;106433;1262;70692;-75
2022/04/26 14:28:00;;;;;;;3.20;1.80;;;;;;;23.98;29.47;100671.67;106329;1262;74474;-76
2022/04/26 14:30:29;;;;;;;3.60;1.50;;;;;;;24.43;29.05;100677.20;106328;1261;58807;-77
2022/04/26 14:33:14;;;;;;;1.80;1.30;;;;;;;25.40;27.31;100680.77;106154;1262;57652;-76
2022/04/26 14:35:44;;;;;;;3.10;1.60;;;;;;;25.92;27.47;100686.33;106278;1262;62230;-78
2022/04/26 14:38:13;;;;;;;1.90;1.40;;;;;;;26.51;26.95;100691.77;106266;1262;61719;-73
2022/04/26 14:40:42;;;;;;;2.90;1.40;;;;;;;26.63;27.11;100694.14;107031;1252;70575;-74
2022/04/26 14:43:11;;;;;;;2.20;1.50;;;;;;;26.74;26.92;100691.98;106565;1260;65220;-72
2022/04/26 14:45:45;;;;;;;3.00;1.10;;;;;;;27.12;26.37;100695.21;106565;1258;61386;-74
2022/04/26 14:48:16;;;;;;;2.10;1.40;;;;;;;26.78;26.73;100695.13;106904;1259;57752;-75
2022/04/26 14:51:05;;;;;;;2.50;1.50;;;;;;;26.84;26.39;100706.08;106977;1260;63314;-76
2022/04/26 14:53:34;;;;;;;2.90;1.40;;;;;;;26.96;26.48;100704.69;106972;1260;60932;-78
2022/04/26 14:56:09;;;;;;;2.00;1.40;;;;;;;27.65;26.23;100703.95;108337;1251;59261;-78
2022/04/26 14:59:01;;;;;;;2.70;1.40;;;;;;;27.55;26.28;100707.92;107313;1259;62546;-77
2022/04/26 15:01:37;;;;;;;1.50;1.20;;;;;;;27.36;25.90;100708.27;107067;1260;60665;-78
2022/04/26 15:04:06;;;;;;;3.90;2.00;;;;;;;27.28;26.21;100707.79;107294;1259;61213;-78
2022/04/26 15:06:34;;;;;;;2.70;1.60;;;;;;;26.71;27.33;100710.73;107936;1259;64194;-81
2022/04/26 15:17:28;;;;;;;2.60;1.40;;;;;;;27.14;26.01;100714.06;107600;1260;61076;-78
2022/04/26 15:19:57;;;;;;;2.00;1.40;;;;;;;27.16;25.84;100708.65;107765;1260;59158;-77
2022/04/26 15:22:26;;;;;;;1.90;1.30;;;;;;;26.76;26.52;100713.92;106987;1260;63114;-76
2022/04/26 15:24:55;;;;;;;2.50;1.50;;;;;;;27.14;26.12;100716.84;107163;1260;60749;-77
2022/04/26 15:27:24;;;;;;;3.50;1.50;;;;;;;26.93;26.28;100715.48;107587;1260;59286;-78
2022/04/26 15:29:53;;;;;;;1.90;1.30;;;;;;;27.52;25.78;100715.90;108340;1260;63663;-80
2022/04/26 15:32:23;;;;;;;1.80;1.40;;;;;;;27.20;25.89;100722.66;107973;1260;60108;-80
2022/04/26 15:34:52;;;;;;;2.60;1.70;;;;;;;26.97;25.86;100718.38;107837;1260;58566;-80
2022/04/26 15:37:24;;;;;;;1.90;1.20;;;;;;;27.20;25.68;100717.38;107938;1260;62334;-78
2022/04/26 15:39:54;;;;;;;3.30;1.50;;;;;;;27.35;25.51;100721.73;107727;1260;61007;-79
2022/04/26 15:42:23;;;;;;;2.60;1.30;;;;;;;26.75;26.42;100727.53;108441;1259;59175;-81
2022/04/26 15:44:52;;;;;;;2.70;1.40;;;;;;;27.19;25.77;100725.95;108158;1260;62515;-81
2022/04/26 15:47:21;;;;;;;2.30;1.30;;;;;;;26.95;25.90;100731.83;108522;1260;60578;-80
2022/04/26 15:49:50;;;;;;;2.30;1.40;;;;;;;27.28;25.79;100729.72;108198;1259;60905;-83
2022/04/26 15:52:19;;;;;;;2.90;1.80;;;;;;;27.05;25.97;100734.52;108209;1260;73476;-82
2022/04/26 15:54:48;;;;;;;3.20;1.70;;;;;;;27.09;25.73;100738.56;108256;1260;71947;-81
2022/04/26 15:57:16;;;;;;;1.90;1.20;;;;;;;27.28;25.77;100740.77;108376;1252;60606;-82
2022/04/26 15:59:45;;;;;;;2.80;1.50;;;;;;;27.50;25.76;100742.58;107608;1260;62563;-82
2022/04/26 16:02:16;;;;;;;3.70;2.10;;;;;;;27.16;25.72;100746.23;108108;1261;57380;-81
2022/04/26 16:08:38;;;;;;;2.20;1.40;;;;;;;26.55;26.30;100748.41;105239;1276;953489;-82
2022/04/26 16:22:16;;;;;;;2.80;1.60;;;;;;;24.68;29.91;100775.52;106151;1279;61457;-78
2022/04/26 16:24:44;;;;;;;2.80;2.10;;;;;;;24.26;30.51;100777.17;106478;1279;73658;-80
2022/04/26 16:27:13;;;;;;;2.50;1.60;;;;;;;24.38;30.48;100775.77;106691;1279;61999;-81